createdAt,value
2018-02-09T11:29:21.232Z,1.07
2018-02-09T11:31:49.672Z,1.04
2018-02-09T11:34:20.029Z,1.00
2018-02-09T11:36:48.475Z,1.04
2018-02-09T11:39:18.023Z,0.92
2018-02-09T11:41:47.903Z,0.90
2018-02-09T11:44:15.775Z,1.05
2018-02-09T11:46:43.939Z,1.01
2018-02-09T11:49:12.477Z,1.02
2018-02-09T11:51:40.011Z,0.93
2018-02-09T11:54:07.938Z,1.07
2018-02-09T11:56:35.486Z,1.01
2018-02-09T11:59:03.019Z,1.13
2018-02-09T12:01:30.570Z,0.79
2018-02-09T12:03:58.092Z,0.80
2018-02-09T12:06:25.735Z,0.90
2018-02-09T12:08:53.251Z,0.95
2018-02-09T12:11:20.815Z,1.18
2018-02-09T12:13:48.325Z,1.07
2018-02-09T12:16:15.933Z,1.08
2018-02-09T12:18:43.519Z,1.03
2018-02-09T12:21:11.031Z,1.16
2018-02-09T12:23:38.591Z,1.26
2018-02-09T12:26:06.201Z,1.21
2018-02-09T12:28:33.738Z,1.21
2018-02-09T12:31:01.247Z,1.24
2018-02-09T12:33:28.978Z,1.14
2018-02-09T12:35:56.577Z,1.24
2018-02-09T12:38:24.169Z,1.15
2018-02-09T12:40:52.075Z,1.29
2018-02-09T12:43:19.920Z,1.26
2018-02-09T12:45:47.486Z,1.28
2018-02-09T12:48:17.188Z,1.30
2018-02-09T12:50:44.719Z,1.41
2018-02-09T12:53:12.323Z,1.51
2018-02-09T12:55:39.866Z,1.44
2018-02-09T12:58:08.151Z,1.40
2018-02-09T13:00:35.723Z,1.31
2018-02-09T13:03:03.250Z,1.41
2018-02-09T13:05:30.819Z,1.29
2018-02-09T13:07:58.405Z,1.33
2018-02-09T13:10:26.062Z,1.28
2018-02-09T13:13:06.018Z,1.38
2018-02-09T13:15:33.645Z,1.16
2018-02-09T13:18:01.513Z,1.06
2018-02-09T13:20:31.925Z,1.08
2018-02-09T13:23:11.398Z,1.10
2018-02-09T13:25:38.966Z,1.26
2018-02-09T13:28:06.490Z,1.17
2018-02-09T13:30:34.179Z,1.23
2018-02-09T13:36:06.450Z,1.37
2018-02-09T13:38:33.982Z,1.29
2018-02-09T13:41:02.239Z,1.37
2018-02-09T13:43:30.811Z,1.43
2018-02-09T13:45:58.367Z,1.54
2018-02-09T13:48:25.920Z,1.41
2018-02-09T13:50:54.739Z,1.56
2018-02-09T13:53:22.427Z,1.43
2018-02-09T13:55:49.948Z,1.47
2018-02-09T13:58:17.771Z,1.50
2018-02-09T14:00:45.347Z,1.44
2018-02-09T14:03:12.906Z,1.39
2018-02-09T14:05:40.931Z,1.41
2018-02-09T14:08:08.630Z,1.32
2018-02-09T14:10:38.515Z,1.26
2018-02-09T14:13:06.074Z,1.43
2018-02-09T14:15:33.617Z,1.43
2018-02-09T14:18:01.223Z,1.54
2018-02-09T14:20:30.239Z,1.64
2018-02-09T14:22:57.943Z,1.34
2018-02-09T14:25:26.222Z,1.38
2018-02-09T14:27:53.827Z,1.57
2018-02-09T14:30:22.227Z,1.40
2018-02-09T14:32:49.758Z,1.35
2018-02-09T14:35:17.331Z,1.48
2018-02-09T14:37:46.319Z,1.44
2018-02-09T14:40:13.889Z,1.35
2018-02-09T14:42:41.418Z,1.43
2018-02-09T14:45:09.544Z,1.43
2018-02-09T14:47:37.053Z,1.50
2018-02-09T14:50:04.599Z,1.52
2018-02-09T14:52:32.224Z,1.52
2018-02-09T14:55:01.165Z,1.50
2018-02-09T14:57:31.768Z,1.46
2018-02-09T14:59:59.535Z,1.64
2018-02-09T15:02:27.081Z,1.72
2018-02-09T15:04:54.610Z,1.64
2018-02-09T15:07:22.166Z,1.59
2018-02-09T15:09:49.686Z,1.59
2018-02-09T15:12:17.264Z,1.70
2018-02-09T15:14:44.799Z,1.61
2018-02-09T15:17:12.376Z,1.61
2018-02-09T15:19:39.926Z,1.53
2018-02-09T15:22:07.573Z,1.86
2018-02-09T15:24:35.329Z,1.85
2018-02-09T15:27:02.857Z,1.77
2018-02-09T15:29:30.456Z,1.86
2018-02-09T15:31:58.086Z,1.92
2018-02-09T15:34:25.639Z,1.93
2018-02-09T15:36:53.165Z,1.96
2018-02-09T15:39:20.746Z,1.88
2018-02-09T15:41:48.270Z,1.99
2018-02-09T15:44:19.992Z,1.90
2018-02-09T15:46:47.515Z,1.94
2018-02-09T15:49:15.078Z,2.04
2018-02-09T15:51:42.604Z,1.83
2018-02-09T15:54:10.707Z,2.07
2018-02-09T15:56:39.361Z,2.00
2018-02-09T15:59:07.482Z,2.05
2018-02-09T16:01:35.208Z,2.14
2018-02-09T16:04:02.738Z,2.17
2018-02-09T16:06:30.295Z,2.07
2018-02-09T16:08:58.319Z,2.09
2018-02-09T16:11:26.274Z,2.14
2018-02-09T16:13:53.827Z,2.02
2018-02-09T16:16:21.413Z,2.22
2018-02-09T16:18:48.947Z,2.24
2018-02-09T16:21:16.548Z,2.19
2018-02-09T16:23:44.950Z,2.21
2018-02-09T16:26:14.256Z,2.13
2018-02-09T16:28:42.813Z,2.12
2018-02-09T16:31:14.674Z,2.17
2018-02-09T16:33:48.391Z,2.13
2018-02-09T16:36:19.251Z,2.08
2018-02-09T16:38:50.293Z,2.20
2018-02-09T16:41:19.023Z,2.21
2018-02-09T16:43:49.020Z,2.20
2018-02-09T16:46:17.306Z,2.21
2018-02-09T16:48:47.501Z,1.96
2018-02-09T16:51:17.563Z,2.09
2018-02-09T16:53:45.410Z,2.13
2018-02-09T16:56:13.624Z,2.13
2018-02-09T16:58:41.896Z,2.13
2018-02-09T17:01:11.663Z,2.19
2018-02-09T17:03:42.632Z,2.15
2018-02-09T17:06:11.675Z,2.18
2018-02-09T17:08:41.953Z,1.84
2018-02-09T17:11:09.627Z,2.00
2018-02-09T17:13:37.335Z,2.02
2018-02-09T17:16:05.298Z,2.05
2018-02-09T17:18:33.764Z,1.90
2018-02-09T17:21:01.412Z,1.96
2018-02-09T17:23:31.240Z,1.99
2018-02-09T17:25:59.006Z,2.00
2018-02-09T17:28:29.064Z,1.92
2018-02-09T17:31:01.597Z,1.76
2018-02-09T17:33:32.319Z,1.90
2018-02-09T17:36:05.157Z,1.87
2018-02-09T17:38:33.003Z,1.84
2018-02-09T17:41:04.273Z,1.78
2018-02-09T17:43:32.236Z,1.77
2018-02-09T17:45:59.810Z,1.71
2018-02-09T17:48:27.423Z,1.70
2018-02-09T17:50:54.940Z,1.65
2018-02-09T17:53:22.515Z,1.61
2018-02-09T17:55:50.042Z,1.57
2018-02-09T17:58:17.652Z,1.54
2018-02-09T18:00:45.372Z,1.53
2018-02-09T18:03:13.304Z,1.41
2018-02-09T18:05:42.307Z,1.35
2018-02-09T18:08:10.939Z,1.32
2018-02-09T18:10:40.666Z,1.32
2018-02-09T18:13:08.751Z,1.28
2018-02-09T18:15:38.413Z,1.31
2018-02-09T18:18:06.040Z,1.30
2018-02-09T18:20:35.445Z,1.28
2018-02-09T18:23:05.906Z,1.30
2018-02-09T18:25:33.504Z,1.22
2018-02-09T18:28:00.999Z,1.19
2018-02-09T18:30:28.573Z,1.02
2018-02-09T18:32:56.102Z,1.20
2018-02-09T18:35:23.651Z,1.13
2018-02-09T18:37:51.204Z,1.12
2018-02-09T18:40:18.910Z,1.13
2018-02-09T18:42:46.511Z,1.17
2018-02-09T18:45:14.277Z,1.16
2018-02-09T18:47:42.040Z,1.17
2018-02-09T18:50:09.667Z,1.08
2018-02-09T18:52:37.342Z,1.09
2018-02-09T18:55:05.038Z,0.82
2018-02-09T18:57:32.598Z,1.14
2018-02-09T19:00:00.158Z,1.19
2018-02-09T19:02:27.690Z,1.15
2018-02-09T19:04:55.207Z,1.05
2018-02-09T19:07:23.887Z,1.16
2018-02-09T19:09:51.991Z,1.14
2018-02-09T19:12:19.541Z,1.20
2018-02-09T19:14:47.334Z,1.18
2018-02-09T19:17:15.054Z,1.20
2018-02-09T19:19:43.220Z,1.33
2018-02-09T19:22:12.765Z,1.27
2018-02-09T19:24:41.494Z,1.31
2018-02-09T19:27:12.251Z,1.28
2018-02-09T19:29:39.978Z,1.25
2018-02-09T19:32:07.504Z,1.18
2018-02-09T19:34:35.117Z,1.29
2018-02-09T19:37:03.082Z,1.30
2018-02-09T19:39:31.158Z,1.32
2018-02-09T19:41:59.324Z,1.26
2018-02-09T19:44:28.067Z,1.35
2018-02-09T19:46:56.275Z,1.17
2018-02-09T19:49:23.802Z,1.24
2018-02-09T19:51:52.020Z,1.16
2018-02-09T19:54:19.751Z,1.07
2018-02-09T19:56:47.837Z,1.24
2018-02-09T19:59:16.294Z,1.31
2018-02-09T20:01:44.185Z,1.35
2018-02-09T20:04:11.940Z,1.29
2018-02-09T20:06:39.537Z,1.28
2018-02-09T20:09:07.118Z,1.40
2018-02-09T20:11:35.024Z,1.36
2018-02-09T20:14:02.574Z,1.33
2018-02-09T20:16:30.096Z,1.30
2018-02-09T20:18:57.648Z,1.38
2018-02-09T20:21:25.451Z,1.41
2018-02-09T20:23:53.622Z,1.26
2018-02-09T20:26:21.211Z,1.35
2018-02-09T20:28:50.804Z,1.38
2018-02-09T20:31:19.724Z,1.39
2018-02-09T20:33:47.725Z,1.42
2018-02-09T20:36:15.544Z,1.35
2018-02-09T20:38:46.636Z,1.27
2018-02-09T20:41:14.872Z,1.28
2018-02-09T20:43:44.727Z,1.46
2018-02-09T20:46:12.798Z,1.46
2018-02-09T20:48:42.344Z,1.40
2018-02-09T20:51:13.401Z,1.38
2018-02-09T20:53:42.081Z,1.38
2018-02-09T20:56:10.384Z,1.39
2018-02-09T20:58:40.231Z,1.35
2018-02-09T21:01:08.508Z,1.37
2018-02-09T21:03:38.186Z,1.42
2018-02-09T21:06:10.620Z,1.47
2018-02-09T21:08:40.555Z,1.19
2018-02-09T21:11:10.213Z,1.22
2018-02-09T21:13:39.150Z,1.27
2018-02-09T21:16:06.703Z,1.37
2018-02-09T21:18:36.631Z,1.32
2018-02-09T21:21:06.789Z,1.33
2018-02-09T21:23:35.679Z,1.29
2018-02-09T21:26:05.315Z,1.33
2018-02-09T21:28:34.256Z,1.43
2018-02-09T21:31:04.328Z,1.35
2018-02-09T21:33:33.694Z,1.21
2018-02-09T21:36:05.105Z,1.34
2018-02-09T21:38:36.148Z,1.38
2018-02-09T21:41:04.726Z,1.40
2018-02-09T21:43:32.471Z,1.42
2018-02-09T21:46:01.354Z,1.45
2018-02-09T21:48:31.621Z,1.34
2018-02-09T21:51:04.006Z,1.32
2018-02-09T21:53:34.685Z,1.26
2018-02-09T21:56:05.487Z,1.20
2018-02-09T21:58:34.036Z,1.36
2018-02-09T22:01:02.190Z,1.44
2018-02-09T22:03:32.595Z,1.46
2018-02-09T22:06:00.349Z,1.48
2018-02-09T22:08:29.354Z,1.41
2018-02-09T22:10:57.610Z,1.19
2018-02-09T22:13:25.724Z,1.32
2018-02-09T22:15:54.621Z,1.39
2018-02-09T22:18:22.223Z,1.50
2018-02-09T22:20:50.372Z,1.47
2018-02-09T22:23:18.524Z,1.61
2018-02-09T22:25:46.115Z,1.62
2018-02-09T22:28:14.730Z,1.66
2018-02-09T22:30:42.319Z,1.44
2018-02-09T22:33:10.534Z,1.58
2018-02-09T22:35:39.980Z,1.56
2018-02-09T22:38:08.435Z,1.37
2018-02-09T22:40:39.406Z,1.34
2018-02-09T22:43:07.884Z,1.35
2018-02-09T22:45:35.996Z,1.54
2018-02-09T22:48:03.585Z,1.57
2018-02-09T22:50:33.403Z,1.55
2018-02-09T22:53:01.393Z,1.55
2018-02-09T22:55:29.857Z,1.55
2018-02-09T22:57:59.954Z,1.57
2018-02-09T23:00:28.472Z,1.61
2018-02-09T23:02:57.902Z,1.54
2018-02-09T23:05:26.895Z,1.33
2018-02-09T23:07:56.249Z,1.55
2018-02-09T23:10:26.257Z,1.51
2018-02-09T23:12:54.833Z,1.54
2018-02-09T23:15:22.762Z,1.44
2018-02-09T23:17:51.863Z,1.52
2018-02-09T23:20:21.467Z,1.53
2018-02-09T23:22:51.977Z,1.53
2018-02-09T23:25:19.694Z,1.51
2018-02-09T23:27:47.375Z,1.41
2018-02-09T23:30:21.482Z,1.51
2018-02-09T23:32:50.128Z,1.52
2018-02-09T23:35:20.858Z,1.39
2018-02-09T23:37:49.780Z,1.46
2018-02-09T23:40:19.483Z,1.50
2018-02-09T23:42:48.212Z,1.26
2018-02-09T23:45:16.887Z,1.35
2018-02-09T23:47:46.331Z,1.36
2018-02-09T23:50:17.557Z,1.52
2018-02-09T23:52:47.654Z,1.51
2018-02-09T23:55:16.874Z,1.50
2018-02-09T23:57:44.552Z,1.49
